Time;durP1;ratioP1;P1;durP2;ratioP2;P2;SDS_P1;SDS_P2;PMS_P1;PMS_P2;Temp;Humidity;BMP_temperature;BMP_pressure;BME280_temperature;BME280_humidity;BME280_pressure;Samples;Min_cycle;Max_cycle;Signal;HPM_P1;HPM_P2
2022/05/12 00:01:34;;;;;;;7.50;4.05;;;14.80;99.90;;;;;;5050620;28;20048;-72
2022/05/12 00:04:39;;;;;;;9.68;5.00;;;14.80;99.90;;;;;;5050860;28;20064;-72
2022/05/12 00:07:44;;;;;;;10.35;4.97;;;14.80;99.90;;;;;;5050554;28;20404;-72
2022/05/12 00:10:48;;;;;;;10.13;4.60;;;14.70;99.90;;;;;;5050531;28;20043;-72
2022/05/12 00:13:52;;;;;;;13.02;5.50;;;14.70;99.90;;;;;;5037999;28;20039;-72
2022/05/12 00:16:57;;;;;;;9.10;4.32;;;14.70;99.90;;;;;;5050131;28;20048;-72
2022/05/12 00:20:01;;;;;;;12.85;4.65;;;14.80;99.90;;;;;;5050148;28;20056;-72
2022/05/12 00:23:10;;;;;;;9.95;4.68;;;14.80;99.90;;;;;;5050526;28;20048;-73
2022/05/12 00:26:14;;;;;;;7.80;4.45;;;14.80;99.90;;;;;;5050495;28;20048;-72
2022/05/12 00:29:18;;;;;;;8.65;4.22;;;14.80;99.90;;;;;;5049597;28;20048;-73
2022/05/12 00:32:23;;;;;;;6.68;4.38;;;14.80;99.90;;;;;;5053343;28;20044;-72
2022/05/12 00:35:27;;;;;;;8.90;4.40;;;14.70;99.90;;;;;;5054371;28;20044;-73
2022/05/12 00:38:31;;;;;;;14.90;5.35;;;14.60;99.90;;;;;;5042125;28;20496;-72
2022/05/12 00:41:36;;;;;;;10.05;5.15;;;14.50;99.90;;;;;;5054666;28;20060;-73
2022/05/12 00:44:40;;;;;;;8.75;4.88;;;14.40;99.90;;;;;;5054167;28;20395;-72
2022/05/12 00:47:44;;;;;;;8.80;5.00;;;14.30;99.90;;;;;;5054194;28;20506;-72
2022/05/12 00:50:48;;;;;;;11.00;4.95;;;14.20;99.90;;;;;;5054321;28;20040;-72
2022/05/12 00:53:57;;;;;;;10.52;5.03;;;14.20;99.90;;;;;;5054116;28;20044;-72
2022/05/12 00:57:04;;;;;;;8.23;5.22;;;14.20;99.90;;;;;;5041182;28;20040;-71
2022/05/12 01:00:11;;;;;;;7.65;4.10;;;14.20;99.90;;;;;;5054109;28;20052;-72
2022/05/12 01:03:21;;;;;;;11.05;5.35;;;14.20;99.90;;;;;;5054031;28;20052;-73
2022/05/12 01:06:25;;;;;;;10.93;5.35;;;14.30;99.90;;;;;;5053850;28;20044;-72
2022/05/12 01:09:30;;;;;;;12.45;5.63;;;14.30;99.90;;;;;;5053768;28;20586;-72
2022/05/12 01:12:42;;;;;;;12.80;5.95;;;14.30;99.90;;;;;;5054191;28;20047;-72
2022/05/12 01:15:53;;;;;;;9.55;5.25;;;14.30;99.90;;;;;;5053514;28;20052;-72
2022/05/12 01:18:57;;;;;;;7.72;4.93;;;14.30;99.90;;;;;;5053535;28;20056;-72
2022/05/12 01:22:03;;;;;;;7.75;4.45;;;14.30;99.90;;;;;;5053586;28;20044;-72
2022/05/12 01:25:14;;;;;;;9.27;5.60;;;14.20;99.90;;;;;;5053754;28;20051;-72
2022/05/12 01:28:17;;;;;;;8.95;5.07;;;14.20;99.90;;;;;;5053269;28;20048;-72
2022/05/12 01:31:22;;;;;;;9.65;5.53;;;14.10;99.90;;;;;;5053136;28;20032;-72
2022/05/12 01:34:26;;;;;;;9.32;5.90;;;14.10;99.90;;;;;;5053421;28;20052;-72
2022/05/12 01:37:31;;;;;;;10.00;5.97;;;14.10;99.90;;;;;;5053134;28;20048;-72
2022/05/12 01:40:35;;;;;;;11.02;5.85;;;14.10;99.90;;;;;;5053249;28;20056;-71
2022/05/12 01:43:39;;;;;;;8.25;5.40;;;14.20;99.90;;;;;;5052237;28;20490;-72
2022/05/12 01:46:43;;;;;;;9.30;5.72;;;14.20;99.90;;;;;;5052855;28;20494;-72
2022/05/12 01:49:48;;;;;;;10.75;6.10;;;14.20;99.90;;;;;;5052917;28;20067;-72
2022/05/12 01:52:52;;;;;;;9.27;5.40;;;14.20;99.90;;;;;;5053154;28;20047;-72
2022/05/12 01:55:57;;;;;;;11.85;5.60;;;14.20;99.90;;;;;;5052956;28;20052;-72
2022/05/12 01:59:01;;;;;;;11.95;5.85;;;14.20;99.90;;;;;;5053432;28;20052;-72
2022/05/12 02:02:05;;;;;;;7.95;5.80;;;14.20;99.90;;;;;;5053060;28;20048;-72
2022/05/12 02:05:11;;;;;;;10.82;5.20;;;14.20;99.90;;;;;;5052691;28;20056;-72
2022/05/12 02:08:17;;;;;;;9.18;5.90;;;14.20;99.90;;;;;;5052656;28;20048;-72
2022/05/12 02:11:21;;;;;;;8.75;5.32;;;14.10;99.90;;;;;;5052759;28;20666;-72
2022/05/12 02:14:26;;;;;;;13.25;6.63;;;14.10;99.90;;;;;;5052849;28;20036;-72
2022/05/12 02:17:30;;;;;;;15.38;7.00;;;14.10;99.90;;;;;;5052154;28;20400;-72
2022/05/12 02:20:34;;;;;;;10.95;6.57;;;14.00;99.90;;;;;;5052853;28;20048;-72
2022/05/12 02:23:38;;;;;;;10.95;7.15;;;14.00;99.90;;;;;;5052489;28;20502;-72
2022/05/12 02:26:42;;;;;;;12.35;6.88;;;14.00;99.90;;;;;;5051792;28;20395;-72
2022/05/12 02:29:47;;;;;;;17.80;7.90;;;14.00;99.90;;;;;;5051893;28;20063;-72
2022/05/12 02:32:51;;;;;;;13.02;7.55;;;13.90;99.90;;;;;;5052234;28;20051;-72
2022/05/12 02:35:56;;;;;;;12.57;7.63;;;13.90;99.90;;;;;;5052197;28;20495;-72
2022/05/12 02:39:00;;;;;;;10.68;7.70;;;13.90;99.90;;;;;;5051949;28;20051;-72
2022/05/12 02:42:05;;;;;;;12.40;7.78;;;13.90;99.90;;;;;;5052181;28;20105;-73
2022/05/12 02:45:10;;;;;;;11.82;7.93;;;13.90;99.90;;;;;;5052128;28;20043;-71
2022/05/12 02:48:14;;;;;;;14.90;7.32;;;13.80;99.90;;;;;;5051812;28;20052;-72
2022/05/12 02:51:19;;;;;;;18.02;8.00;;;13.80;99.90;;;;;;5051763;28;20109;-72
2022/05/12 02:54:23;;;;;;;14.45;8.93;;;13.80;99.90;;;;;;5051652;28;20032;-72
2022/05/12 02:57:26;;;;;;;16.55;8.63;;;13.80;99.90;;;;;;5051389;28;20068;-72
2022/05/12 03:00:33;;;;;;;12.73;8.15;;;13.80;99.90;;;;;;5051672;28;20048;-72
2022/05/12 03:03:38;;;;;;;22.77;8.60;;;13.80;99.90;;;;;;5052009;28;20387;-72
2022/05/12 03:06:42;;;;;;;13.70;8.52;;;13.80;99.90;;;;;;5051742;28;20048;-72
2022/05/12 03:09:46;;;;;;;13.30;7.68;;;13.80;99.90;;;;;;5051723;28;20052;-72
2022/05/12 03:12:51;;;;;;;11.55;7.68;;;13.80;99.90;;;;;;5052074;28;20051;-72
2022/05/12 03:15:55;;;;;;;10.85;7.35;;;13.80;99.90;;;;;;5051862;28;20047;-72
2022/05/12 03:18:59;;;;;;;11.00;7.25;;;13.70;99.90;;;;;;5051675;28;20051;-72
2022/05/12 03:22:03;;;;;;;13.43;7.72;;;13.60;99.90;;;;;;5051527;28;20052;-72
2022/05/12 03:25:11;;;;;;;15.18;8.15;;;13.60;99.90;;;;;;5051142;28;20055;-72
2022/05/12 03:28:15;;;;;;;18.90;8.18;;;13.40;99.90;;;;;;5050880;28;20070;-72
2022/05/12 03:31:19;;;;;;;12.15;7.85;;;13.30;99.90;;;;;;5051026;28;20040;-72
2022/05/12 03:34:24;;;;;;;17.50;9.32;;;13.10;99.90;;;;;;5051438;28;20411;-72
2022/05/12 03:37:29;;;;;;;15.52;8.93;;;13.00;99.90;;;;;;5050571;28;20044;-72
2022/05/12 03:40:33;;;;;;;16.40;10.00;;;12.90;99.90;;;;;;5051006;28;20395;-72
2022/05/12 03:47:00;;;;;;;13.95;9.75;;;12.80;99.90;;;;;;5050626;28;20044;-72
2022/05/12 03:50:14;;;;;;;21.00;9.27;;;12.70;99.90;;;;;;5050232;28;20056;-72
2022/05/12 03:53:18;;;;;;;14.15;9.25;;;12.40;99.90;;;;;;5050749;28;20044;-72
2022/05/12 03:56:23;;;;;;;13.23;8.57;;;12.40;99.90;;;;;;5051029;28;20046;-72
2022/05/12 03:59:27;;;;;;;13.27;9.15;;;12.30;99.90;;;;;;5050279;28;20052;-72
2022/05/12 04:02:31;;;;;;;12.82;8.88;;;12.20;99.90;;;;;;5050374;28;20063;-72
2022/05/12 04:05:35;;;;;;;19.65;9.18;;;12.20;99.90;;;;;;5049957;28;20395;-72
2022/05/12 04:08:39;;;;;;;11.88;8.68;;;12.10;99.90;;;;;;5050025;28;20044;-72
2022/05/12 04:11:43;;;;;;;13.82;9.23;;;12.10;99.90;;;;;;5050909;28;20496;-72
2022/05/12 04:14:47;;;;;;;18.08;10.00;;;12.10;99.90;;;;;;5050336;28;20309;-72
2022/05/12 04:17:59;;;;;;;13.50;10.10;;;12.10;99.90;;;;;;5049939;28;20044;-72
2022/05/12 04:21:03;;;;;;;;;;;12.10;99.90;;;;;;5050901;28;20047;-72
2022/05/12 04:24:08;;;;;;;15.00;10.30;;;12.10;99.90;;;;;;5050631;28;19916;-72
2022/05/12 04:27:13;;;;;;;17.23;10.38;;;12.10;99.90;;;;;;5050257;28;20044;-72
2022/05/12 04:30:19;;;;;;;18.90;11.02;;;12.10;99.90;;;;;;5049455;28;20043;-72
2022/05/12 04:36:45;;;;;;;17.13;10.50;;;12.30;99.90;;;;;;5050035;28;20041;-72
2022/05/12 04:39:49;;;;;;;15.98;9.60;;;12.30;99.90;;;;;;5050474;28;20478;-72
2022/05/12 04:42:55;;;;;;;15.85;10.30;;;12.40;99.90;;;;;;5050160;28;20044;-72
2022/05/12 04:46:00;;;;;;;14.43;9.50;;;12.40;99.90;;;;;;5050224;28;20056;-72
2022/05/12 04:49:07;;;;;;;13.05;8.25;;;12.70;99.90;;;;;;5050106;28;20044;-72
2022/05/12 04:52:11;;;;;;;15.07;7.80;;;15.00;99.90;;;;;;5050285;28;20391;-72
2022/05/12 04:55:16;;;;;;;14.98;7.70;;;17.00;99.90;;;;;;5049999;28;20052;-72
2022/05/12 04:58:20;;;;;;;17.17;7.07;;;18.60;99.90;;;;;;5050150;28;20040;-72
2022/05/12 05:01:24;;;;;;;15.85;7.00;;;20.00;99.90;;;;;;5050452;28;20056;-72
2022/05/12 05:04:28;;;;;;;12.30;7.53;;;20.80;99.90;;;;;;5050108;28;20036;-72
2022/05/12 05:07:32;;;;;;;8.00;6.05;;;20.90;99.90;;;;;;5049865;28;20051;-72
2022/05/12 05:10:36;;;;;;;11.45;7.45;;;22.00;99.90;;;;;;5050229;28;20048;-72
2022/05/12 05:13:40;;;;;;;12.82;7.63;;;22.80;99.90;;;;;;5050276;28;20059;-72
2022/05/12 05:16:43;;;;;;;12.80;7.90;;;22.90;99.90;;;;;;5050072;28;20392;-72
2022/05/12 05:19:48;;;;;;;15.20;7.70;;;22.70;99.90;;;;;;5053610;28;20056;-72
2022/05/12 05:22:53;;;;;;;15.40;6.95;;;23.60;99.90;;;;;;5053332;28;20056;-73
2022/05/12 05:25:57;;;;;;;13.23;7.13;;;24.30;99.90;;;;;;5053851;28;20051;-73
2022/05/12 05:29:01;;;;;;;11.70;6.30;;;25.10;99.90;;;;;;5053466;28;20048;-72
2022/05/12 05:32:06;;;;;;;10.65;6.50;;;25.50;99.90;;;;;;5053584;28;20044;-72
2022/05/12 05:35:12;;;;;;;13.57;7.07;;;25.60;99.90;;;;;;5053603;28;20391;-72
2022/05/12 05:38:17;;;;;;;18.98;7.70;;;22.40;99.90;;;;;;5053311;28;20156;-72
2022/05/12 05:41:22;;;;;;;16.30;8.45;;;21.70;99.90;;;;;;5053605;28;20510;-72
2022/05/12 05:44:28;;;;;;;17.52;8.75;;;22.10;99.90;;;;;;5053176;28;20498;-72
2022/05/12 05:47:32;;;;;;;11.48;7.07;;;22.70;99.90;;;;;;5053046;28;20068;-73
2022/05/12 05:54:06;;;;;;;14.40;7.05;;;22.50;99.90;;;;;;5033139;28;20495;-72
2022/05/12 05:57:10;;;;;;;41.90;21.65;;;22.00;99.90;;;;;;5052804;28;20116;-72
2022/05/12 06:00:15;;;;;;;36.42;20.48;;;23.50;99.90;;;;;;5053268;28;20064;-72
2022/05/12 06:03:20;;;;;;;38.38;19.50;;;23.90;99.90;;;;;;5052940;28;20052;-73
2022/05/12 06:06:25;;;;;;;34.13;16.75;;;24.70;99.90;;;;;;5052637;28;20052;-73
2022/05/12 06:09:29;;;;;;;24.75;14.07;;;25.00;99.90;;;;;;5051560;28;20051;-73
2022/05/12 06:12:34;;;;;;;20.48;12.07;;;25.70;99.90;;;;;;5052978;28;20383;-73
2022/05/12 06:15:40;;;;;;;23.58;12.13;;;26.20;99.90;;;;;;5052744;28;20513;-73
2022/05/12 06:18:46;;;;;;;17.67;11.45;;;26.70;99.30;;;;;;5050630;28;20483;-73
2022/05/12 06:21:50;;;;;;;16.80;10.40;;;26.80;99.00;;;;;;5049003;28;20048;-70
2022/05/12 06:24:54;;;;;;;20.33;10.13;;;27.20;98.30;;;;;;5052139;28;20454;-70
2022/05/12 06:27:59;;;;;;;17.23;9.88;;;25.30;98.90;;;;;;5051253;28;20056;-72
2022/05/12 06:31:02;;;;;;;13.55;8.05;;;21.60;99.90;;;;;;5044440;28;20044;-73
2022/05/12 06:34:06;;;;;;;15.93;7.72;;;22.50;99.90;;;;;;5032169;28;20590;-73
2022/05/12 06:37:10;;;;;;;14.45;7.20;;;23.50;99.90;;;;;;5036901;28;20044;-73
2022/05/12 06:40:14;;;;;;;10.82;7.50;;;24.40;99.90;;;;;;5052325;28;20060;-73
2022/05/12 06:43:18;;;;;;;15.60;7.18;;;24.20;99.90;;;;;;5051865;28;20052;-73
2022/05/12 06:46:25;;;;;;;13.32;6.90;;;24.30;99.90;;;;;;5028079;28;20367;-73
2022/05/12 06:49:29;;;;;;;11.10;7.45;;;24.60;99.90;;;;;;5032545;28;20048;-73
2022/05/12 06:52:33;;;;;;;11.85;7.40;;;25.00;99.90;;;;;;5032496;28;20475;-72
2022/05/12 06:55:37;;;;;;;14.10;8.15;;;25.70;99.50;;;;;;5048021;28;20051;-73
2022/05/12 06:58:42;;;;;;;9.57;6.25;;;23.20;99.90;;;;;;5044722;28;20411;-73
2022/05/12 07:01:45;;;;;;;14.95;6.85;;;25.20;99.90;;;;;;5050291;28;20040;-73
2022/05/12 07:04:52;;;;;;;11.77;6.30;;;26.10;99.30;;;;;;5050954;28;20043;-71
2022/05/12 07:07:57;;;;;;;12.60;6.78;;;26.40;98.00;;;;;;5050906;28;20028;-74
2022/05/12 07:11:01;;;;;;;9.43;6.25;;;26.50;98.20;;;;;;5049001;28;20045;-74
2022/05/12 07:14:06;;;;;;;12.32;7.10;;;27.40;97.50;;;;;;5051653;28;20056;-73
2022/05/12 07:17:09;;;;;;;11.65;7.25;;;26.70;96.90;;;;;;5031442;28;20065;-73
2022/05/12 07:27:00;;;;;;;10.98;6.78;;;30.10;94.80;;;;;;5049304;28;20483;-72
2022/05/12 07:30:06;;;;;;;7.78;4.97;;;30.60;94.60;;;;;;5048786;28;20048;-72
2022/05/12 07:33:11;;;;;;;6.50;4.10;;;31.80;93.00;;;;;;5050745;28;20043;-74
2022/05/12 07:36:25;;;;;;;7.25;3.53;;;32.60;91.50;;;;;;5048456;28;20040;-73
2022/05/12 07:39:31;;;;;;;8.15;3.83;;;33.20;90.60;;;;;;5049488;28;20040;-74
2022/05/12 07:42:35;;;;;;;8.70;3.13;;;33.40;88.70;;;;;;5050144;28;20498;-73
2022/05/12 07:45:41;;;;;;;5.43;2.40;;;33.70;85.30;;;;;;5051519;28;20066;-73
2022/05/12 07:48:48;;;;;;;8.55;3.17;;;34.30;83.60;;;;;;5046491;28;20040;-72
2022/05/12 07:51:52;;;;;;;8.45;3.42;;;34.60;82.80;;;;;;5049781;28;20048;-74
2022/05/12 07:54:57;;;;;;;6.25;2.72;;;34.60;82.90;;;;;;5047944;28;20578;-74
2022/05/12 07:58:04;;;;;;;6.90;3.08;;;34.40;81.70;;;;;;5057031;28;20040;-73
2022/05/12 08:01:08;;;;;;;8.88;2.58;;;33.50;81.80;;;;;;5039998;28;20048;-75
2022/05/12 08:04:13;;;;;;;6.75;2.42;;;33.80;82.30;;;;;;5049369;28;20044;-74
2022/05/12 08:07:16;;;;;;;12.48;3.08;;;34.40;81.00;;;;;;5047208;28;20064;-75
2022/05/12 08:10:21;;;;;;;7.70;3.05;;;35.30;78.80;;;;;;5058951;28;20060;-72
2022/05/12 08:13:25;;;;;;;5.50;2.03;;;35.90;78.20;;;;;;5045123;28;20048;-73
2022/05/12 08:16:29;;;;;;;5.80;2.30;;;36.20;75.60;;;;;;5046093;28;20063;-72
2022/05/12 08:19:34;;;;;;;7.18;2.60;;;36.70;74.90;;;;;;5039678;28;21233;-72
2022/05/12 08:22:39;;;;;;;13.60;2.90;;;37.30;74.20;;;;;;5046332;28;20072;-72
2022/05/12 08:25:45;;;;;;;9.82;2.55;;;37.20;72.60;;;;;;5044183;28;20048;-71
2022/05/12 08:28:50;;;;;;;7.68;2.67;;;37.50;73.00;;;;;;5011557;28;20040;-71
2022/05/12 08:31:54;;;;;;;6.55;2.60;;;37.90;69.80;;;;;;5056625;28;20395;-75
2022/05/12 08:34:58;;;;;;;10.85;2.50;;;38.40;71.50;;;;;;5026940;28;20514;-72
2022/05/12 08:38:06;;;;;;;8.52;2.60;;;38.10;69.00;;;;;;5056085;28;20052;-73
2022/05/12 08:41:31;;;;;;;6.22;2.40;;;38.50;69.20;;;;;;5052554;28;20553;-74
2022/05/12 08:44:39;;;;;;;12.10;2.80;;;39.30;67.40;;;;;;5052704;28;20490;-74
2022/05/12 08:47:50;;;;;;;6.88;2.80;;;39.70;64.40;;;;;;5046629;28;20116;-72
2022/05/12 08:50:55;;;;;;;6.32;2.55;;;37.20;66.10;;;;;;5061588;28;20035;-73
2022/05/12 08:54:07;;;;;;;7.68;2.28;;;38.90;67.00;;;;;;5032606;28;20064;-73
2022/05/12 08:57:33;;;;;;;7.22;2.42;;;39.20;65.10;;;;;;5044690;28;20040;-75
2022/05/12 09:00:47;;;;;;;7.88;2.20;;;39.90;63.90;;;;;;5051076;28;20040;-72
2022/05/12 09:04:23;;;;;;;11.18;2.50;;;41.30;61.60;;;;;;5055714;28;20961;-72
2022/05/12 09:07:42;;;;;;;7.25;2.15;;;41.50;60.50;;;;;;5043636;28;20662;-73
2022/05/12 09:11:01;;;;;;;8.75;2.15;;;41.40;59.30;;;;;;5059897;28;20044;-73
2022/05/12 09:14:26;;;;;;;11.10;2.72;;;39.80;59.80;;;;;;5064196;28;20044;-73
2022/05/12 09:17:54;;;;;;;11.15;2.75;;;39.90;59.50;;;;;;5057421;28;20127;-71
2022/05/12 09:21:01;;;;;;;9.13;2.95;;;40.60;60.20;;;;;;5035547;28;20048;-74
2022/05/12 09:24:07;;;;;;;8.35;2.67;;;41.60;60.30;;;;;;5068822;28;20047;-73
2022/05/12 09:27:13;;;;;;;6.20;2.30;;;42.60;59.50;;;;;;5048202;28;20044;-73
2022/05/12 09:30:36;;;;;;;10.13;2.63;;;42.90;60.00;;;;;;5056332;28;20426;-72
2022/05/12 09:33:40;;;;;;;7.68;2.72;;;43.70;58.60;;;;;;5052960;28;20396;-73
2022/05/12 09:36:44;;;;;;;6.50;2.40;;;44.10;58.00;;;;;;5047714;28;20518;-72
2022/05/12 09:39:56;;;;;;;9.15;2.80;;;44.80;56.40;;;;;;5041271;28;20032;-72
2022/05/12 09:43:24;;;;;;;10.82;2.72;;;44.80;55.90;;;;;;5059899;28;20048;-73
2022/05/12 09:46:29;;;;;;;9.32;2.40;;;44.80;56.90;;;;;;5049696;28;20498;-73
2022/05/12 09:49:41;;;;;;;9.13;2.47;;;44.70;56.80;;;;;;5051084;28;20059;-72
2022/05/12 09:53:06;;;;;;;8.50;2.65;;;44.90;55.00;;;;;;5035682;28;20767;-71
2022/05/12 09:56:46;;;;;;;9.35;2.70;;;45.40;55.80;;;;;;5030916;28;20044;-73
2022/05/12 09:59:52;;;;;;;;;;;45.10;54.30;;;;;;5029761;28;20396;-74
2022/05/12 10:09:53;;;;;;;7.38;2.63;;;43.80;54.80;;;;;;5049053;28;20091;-75
2022/05/12 10:13:13;;;;;;;8.63;2.70;;;44.20;54.50;;;;;;5040505;28;20051;-74
2022/05/12 10:16:25;;;;;;;7.35;2.90;;;44.10;54.20;;;;;;5039342;28;20510;-73
2022/05/12 10:19:33;;;;;;;10.57;2.78;;;43.90;54.90;;;;;;5042480;28;20036;-73
2022/05/12 10:22:52;;;;;;;9.95;2.58;;;44.20;54.80;;;;;;5034313;28;20040;-73
2022/05/12 10:26:05;;;;;;;10.52;3.10;;;44.50;53.40;;;;;;5037558;28;20392;-74
2022/05/12 10:29:21;;;;;;;8.90;2.40;;;44.00;54.30;;;;;;5004925;28;20164;-72
2022/05/12 10:32:47;;;;;;;10.82;2.78;;;43.20;53.40;;;;;;5054103;28;20036;-72
2022/05/12 10:36:09;;;;;;;10.98;2.58;;;43.40;54.40;;;;;;5052512;28;20044;-73
2022/05/12 10:39:34;;;;;;;9.07;3.00;;;43.00;53.40;;;;;;5057970;28;20036;-75
2022/05/12 10:42:58;;;;;;;10.07;2.65;;;42.90;54.70;;;;;;5050254;28;20499;-73
2022/05/12 10:46:12;;;;;;;7.82;2.15;;;42.40;53.20;;;;;;5056381;28;20150;-73
2022/05/12 10:49:41;;;;;;;10.60;2.60;;;42.40;52.20;;;;;;5039388;28;20047;-73
2022/05/12 10:53:12;;;;;;;10.50;1.80;;;42.30;52.90;;;;;;5054805;28;20048;-73
2022/05/12 10:56:41;;;;;;;15.63;2.20;;;43.00;52.60;;;;;;5050281;28;20395;-75
2022/05/12 10:59:46;;;;;;;9.70;2.40;;;43.30;52.90;;;;;;5059116;28;20091;-74
2022/05/12 11:03:00;;;;;;;7.68;2.78;;;43.30;52.90;;;;;;5046726;28;20514;-74
2022/05/12 11:06:08;;;;;;;10.57;2.80;;;44.20;52.80;;;;;;5025936;28;20048;-75
2022/05/12 11:09:18;;;;;;;8.98;2.40;;;44.40;52.20;;;;;;5046852;28;20047;-73
2022/05/12 11:12:29;;;;;;;9.70;2.63;;;44.00;53.20;;;;;;5047469;28;20392;-73
2022/05/12 11:16:00;;;;;;;7.80;2.55;;;42.80;53.80;;;;;;5060309;28;20043;-74
2022/05/12 11:19:14;;;;;;;10.98;2.80;;;43.20;53.00;;;;;;5063917;28;20047;-74
2022/05/12 11:22:38;;;;;;;10.68;2.42;;;42.80;52.50;;;;;;5054358;28;20039;-75
2022/05/12 11:26:00;;;;;;;11.88;2.50;;;41.90;53.20;;;;;;5043792;28;20032;-72
2022/05/12 11:32:49;;;;;;;8.30;2.15;;;42.90;52.80;;;;;;5054011;28;20037;-73
2022/05/12 11:35:54;;;;;;;9.43;2.03;;;42.20;53.10;;;;;;5053171;28;20028;-72
2022/05/12 11:39:21;;;;;;;12.73;2.75;;;36.10;53.00;;;;;;5038301;28;20060;-74
2022/05/12 11:44:23;;;;;;;11.18;2.50;;;37.30;54.80;;;;;;5031039;28;20064;-72
2022/05/12 11:46:35;;;;;;;8.65;2.40;;;39.00;54.50;;;;;;5051022;28;20048;-73
2022/05/12 11:49:44;;;;;;;10.48;2.60;;;39.10;55.20;;;;;;5039264;28;20045;-72
2022/05/12 11:53:13;;;;;;;8.73;2.40;;;40.20;54.80;;;;;;5038621;28;20040;-74
2022/05/12 11:56:38;;;;;;;29.90;3.40;;;40.30;54.50;;;;;;5050640;28;20040;-73
2022/05/12 11:59:47;;;;;;;7.85;2.20;;;40.40;54.70;;;;;;5031590;28;20392;-73
2022/05/12 12:02:51;;;;;;;27.13;15.93;;;39.70;54.40;;;;;;5030978;28;20045;-74
2022/05/12 12:05:58;;;;;;;10.05;4.45;;;39.50;55.10;;;;;;5030744;28;20064;-75
2022/05/12 12:09:25;;;;;;;11.00;2.50;;;39.50;55.00;;;;;;5010354;28;20036;-73
2022/05/12 12:12:45;;;;;;;9.77;3.10;;;38.80;53.50;;;;;;5035687;28;20352;-73
2022/05/12 12:16:05;;;;;;;10.30;2.83;;;37.70;54.30;;;;;;5050442;28;20391;-74
2022/05/12 12:19:41;;;;;;;9.40;3.53;;;37.50;56.30;;;;;;5050267;28;20052;-74
2022/05/12 12:22:47;;;;;;;10.40;3.72;;;37.10;57.30;;;;;;5030023;28;20408;-74
2022/05/12 12:26:05;;;;;;;13.73;2.83;;;37.10;56.90;;;;;;5049496;28;20052;-72
2022/05/12 12:29:20;;;;;;;7.03;2.47;;;36.80;54.90;;;;;;5057128;28;20039;-72
2022/05/12 12:32:31;;;;;;;8.98;2.47;;;34.30;57.50;;;;;;5055276;28;20415;-73
2022/05/12 12:36:17;;;;;;;10.93;2.58;;;34.80;59.20;;;;;;5050272;28;20040;-72
2022/05/12 12:39:46;;;;;;;10.82;3.13;;;35.50;59.30;;;;;;5056350;28;20048;-73
2022/05/12 12:42:50;;;;;;;11.60;2.70;;;34.50;59.00;;;;;;5049419;28;20036;-72
2022/05/12 12:45:55;;;;;;;9.65;2.80;;;34.70;58.70;;;;;;5056286;28;20036;-74
2022/05/12 12:49:29;;;;;;;7.53;2.35;;;34.90;59.60;;;;;;5057327;28;20051;-74
2022/05/12 12:52:42;;;;;;;8.57;2.85;;;35.20;58.50;;;;;;5052357;28;20052;-73
2022/05/12 12:59:21;;;;;;;8.25;2.97;;;33.00;56.90;;;;;;5054896;28;20062;-72
2022/05/12 13:02:40;;;;;;;10.48;3.08;;;32.50;58.20;;;;;;5048843;28;20056;-74
2022/05/12 13:05:45;;;;;;;14.38;3.15;;;30.50;59.80;;;;;;5052291;28;20327;-72
2022/05/12 13:08:57;;;;;;;12.25;2.70;;;31.10;60.40;;;;;;5052575;28;20044;-74
2022/05/12 13:12:11;;;;;;;8.57;2.72;;;30.30;60.40;;;;;;5051926;28;20537;-75
2022/05/12 13:15:17;;;;;;;8.27;2.78;;;31.00;61.30;;;;;;5028557;28;20035;-75
2022/05/12 13:18:29;;;;;;;9.38;2.65;;;30.80;61.30;;;;;;5053560;28;20064;-74
2022/05/12 13:21:47;;;;;;;11.50;2.63;;;30.10;62.70;;;;;;5056570;28;20055;-73
2022/05/12 13:25:04;;;;;;;8.95;2.58;;;31.00;62.70;;;;;;5064367;28;20507;-76
2022/05/12 13:28:16;;;;;;;8.90;2.55;;;30.60;62.60;;;;;;5060532;28;20040;-74
2022/05/12 13:31:23;;;;;;;;;;;29.60;62.60;;;;;;5063340;28;20040;-73
2022/05/12 13:34:31;;;;;;;14.93;2.88;;;28.00;62.50;;;;;;5059065;28;19909;-73
2022/05/12 13:38:00;;;;;;;11.45;2.67;;;28.90;62.10;;;;;;5045967;28;20490;-75
2022/05/12 13:41:10;;;;;;;7.30;2.30;;;29.90;63.10;;;;;;5034492;28;20049;-74
2022/05/12 13:44:21;;;;;;;11.07;2.30;;;30.40;60.90;;;;;;5050671;28;20052;-74
2022/05/12 13:47:47;;;;;;;9.50;2.97;;;30.50;60.70;;;;;;5059082;28;20075;-74
2022/05/12 13:50:56;;;;;;;10.90;2.58;;;28.90;62.20;;;;;;5034596;28;20048;-76
2022/05/12 13:54:08;;;;;;;9.27;2.72;;;28.70;64.60;;;;;;5059441;28;20040;-74
2022/05/12 13:57:13;;;;;;;11.05;2.55;;;29.30;66.40;;;;;;5052394;28;20044;-73
2022/05/12 14:00:41;;;;;;;8.05;2.30;;;29.00;62.10;;;;;;5053538;28;20503;-73
2022/05/12 14:03:45;;;;;;;9.48;2.42;;;28.10;65.30;;;;;;5050584;28;20044;-73
2022/05/12 14:06:56;;;;;;;8.55;2.20;;;28.70;64.30;;;;;;5063825;28;20090;-74
2022/05/12 14:10:26;;;;;;;10.10;2.55;;;29.00;63.10;;;;;;5072270;28;20071;-73
2022/05/12 14:20:25;;;;;;;9.82;2.75;;;28.80;62.20;;;;;;5056825;28;20388;-74
2022/05/12 14:23:29;;;;;;;4.43;1.95;;;28.90;64.10;;;;;;5053722;28;20047;-74
2022/05/12 14:26:32;;;;;;;9.55;2.13;;;29.00;64.40;;;;;;5044400;28;20044;-74
2022/05/12 14:29:37;;;;;;;10.55;2.80;;;28.90;64.80;;;;;;5059862;28;20053;-72
2022/05/12 14:32:44;;;;;;;11.32;3.00;;;28.80;62.90;;;;;;5051376;28;20433;-73
2022/05/12 14:35:48;;;;;;;13.13;2.78;;;28.60;64.90;;;;;;5057348;28;20040;-74
2022/05/12 14:38:53;;;;;;;11.50;4.03;;;28.50;64.40;;;;;;5049581;28;20039;-73
2022/05/12 14:41:57;;;;;;;8.15;2.67;;;28.50;64.40;;;;;;5062323;28;20388;-73
2022/05/12 14:45:01;;;;;;;10.40;2.53;;;28.30;63.40;;;;;;5062027;28;20048;-73
2022/05/12 14:48:07;;;;;;;10.63;2.03;;;28.20;64.30;;;;;;5061125;28;20043;-73
2022/05/12 14:51:12;;;;;;;9.10;2.50;;;28.10;64.60;;;;;;5063307;28;20044;-73
2022/05/12 14:54:17;;;;;;;8.88;2.40;;;27.90;64.30;;;;;;5061668;28;20039;-74
2022/05/12 14:57:24;;;;;;;11.02;2.40;;;27.80;63.90;;;;;;5042760;28;20048;-73
2022/05/12 15:00:28;;;;;;;6.40;1.85;;;27.60;63.30;;;;;;5050654;28;20047;-72
2022/05/12 15:03:41;;;;;;;7.80;2.38;;;27.30;62.80;;;;;;5051604;28;20043;-74
2022/05/12 15:06:45;;;;;;;11.63;2.17;;;27.30;64.60;;;;;;5031783;28;20052;-73
2022/05/12 15:09:50;;;;;;;7.80;2.03;;;27.30;65.60;;;;;;5040362;28;20619;-75
2022/05/12 15:12:53;;;;;;;10.38;2.85;;;27.30;64.10;;;;;;5060688;28;20692;-73
2022/05/12 15:15:57;;;;;;;7.93;2.08;;;27.20;66.00;;;;;;5048551;28;20043;-74
2022/05/12 15:19:03;;;;;;;10.07;2.38;;;27.30;64.20;;;;;;5049798;28;20502;-74
2022/05/12 15:22:07;;;;;;;9.00;2.15;;;27.00;65.60;;;;;;5050237;28;20048;-75
2022/05/12 15:25:12;;;;;;;12.23;2.75;;;26.90;66.30;;;;;;5051520;28;20051;-74
2022/05/12 15:28:29;;;;;;;9.52;1.95;;;26.70;64.60;;;;;;5029566;28;20056;-74
2022/05/12 15:31:33;;;;;;;6.95;2.10;;;26.60;65.00;;;;;;5049568;28;20052;-74
2022/05/12 15:34:37;;;;;;;8.52;2.00;;;26.50;65.50;;;;;;5045032;28;20379;-72
2022/05/12 15:37:43;;;;;;;7.22;2.05;;;26.50;67.00;;;;;;5035725;28;20510;-74
2022/05/12 15:41:00;;;;;;;9.32;2.40;;;26.50;66.50;;;;;;5042832;28;20048;-74
2022/05/12 15:44:29;;;;;;;4.85;2.20;;;26.60;66.50;;;;;;5050628;28;20051;-72
2022/05/12 15:47:35;;;;;;;7.35;2.25;;;26.50;65.00;;;;;;5048377;28;20052;-74
2022/05/12 15:50:39;;;;;;;10.30;2.47;;;26.40;67.00;;;;;;5046621;28;20048;-74
2022/05/12 15:53:43;;;;;;;8.82;2.10;;;26.40;67.00;;;;;;5047986;28;20040;-74
2022/05/12 15:56:48;;;;;;;9.73;2.55;;;26.30;67.50;;;;;;5050119;28;20048;-74
2022/05/12 15:59:52;;;;;;;12.00;2.47;;;26.20;67.80;;;;;;5045984;28;20495;-74
2022/05/12 16:02:58;;;;;;;10.27;1.90;;;25.20;65.90;;;;;;5048389;28;20052;-73
2022/05/12 16:06:03;;;;;;;8.18;2.13;;;25.40;68.60;;;;;;5048088;28;20043;-73
2022/05/12 16:09:07;;;;;;;7.68;2.53;;;25.50;68.90;;;;;;5031151;28;20039;-73
2022/05/12 16:12:25;;;;;;;9.52;2.08;;;25.50;67.90;;;;;;5041438;28;20502;-74
2022/05/12 16:15:31;;;;;;;14.65;2.60;;;25.30;67.60;;;;;;5032763;28;20040;-73
2022/05/12 16:18:35;;;;;;;6.18;2.00;;;25.10;67.10;;;;;;5047091;28;20373;-74
2022/05/12 16:21:39;;;;;;;7.80;2.40;;;25.20;69.50;;;;;;5049620;28;20063;-74
2022/05/12 16:24:44;;;;;;;6.60;1.85;;;25.10;67.70;;;;;;5049673;28;20044;-73
2022/05/12 16:28:06;;;;;;;9.07;2.45;;;25.10;67.20;;;;;;5048547;28;20048;-74
2022/05/12 16:31:12;;;;;;;10.57;2.03;;;25.10;69.70;;;;;;5036328;28;20044;-74
2022/05/12 16:34:18;;;;;;;9.30;2.20;;;24.90;67.90;;;;;;5042965;28;20045;-73
2022/05/12 16:37:23;;;;;;;13.43;2.83;;;24.70;69.30;;;;;;5034312;28;20049;-73
2022/05/12 16:40:28;;;;;;;5.30;2.10;;;24.70;70.20;;;;;;5035648;28;20048;-73
2022/05/12 16:43:34;;;;;;;22.90;3.60;;;24.70;69.90;;;;;;5049991;28;20059;-74
2022/05/12 16:46:38;;;;;;;8.73;1.88;;;24.60;70.80;;;;;;5047197;28;20063;-72
2022/05/12 16:49:42;;;;;;;14.55;2.50;;;24.20;69.50;;;;;;5048321;28;20044;-73
2022/05/12 16:52:46;;;;;;;9.00;2.67;;;24.30;69.30;;;;;;5049680;28;20044;-73